sensor_id;sensor_type;location;lat;lon;timestamp;temperature;humidity
10828;DHT22;5467;59.334;13.512;2022-10-16T00:01:54;10.40;99.90
10828;DHT22;5467;59.334;13.512;2022-10-16T00:04:21;10.40;99.90
10828;DHT22;5467;59.334;13.512;2022-10-16T00:06:48;10.30;99.90
10828;DHT22;5467;59.334;13.512;2022-10-16T00:09:15;10.40;99.90
10828;DHT22;5467;59.334;13.512;2022-10-16T00:11:42;10.40;99.90
10828;DHT22;5467;59.334;13.512;2022-10-16T00:14:11;10.40;99.90
10828;DHT22;5467;59.334;13.512;2022-10-16T00:16:38;10.40;99.90
10828;DHT22;5467;59.334;13.512;2022-10-16T00:19:06;10.40;99.90
10828;DHT22;5467;59.334;13.512;2022-10-16T00:21:34;10.40;99.90
10828;DHT22;5467;59.334;13.512;2022-10-16T00:24:03;10.40;99.90
10828;DHT22;5467;59.334;13.512;2022-10-16T00:26:33;10.50;99.90
10828;DHT22;5467;59.334;13.512;2022-10-16T00:29:01;10.50;99.90
10828;DHT22;5467;59.334;13.512;2022-10-16T00:31:28;10.60;99.90
10828;DHT22;5467;59.334;13.512;2022-10-16T00:33:55;10.60;99.90
10828;DHT22;5467;59.334;13.512;2022-10-16T00:36:26;10.70;99.90
10828;DHT22;5467;59.334;13.512;2022-10-16T00:38:53;10.60;99.90
10828;DHT22;5467;59.334;13.512;2022-10-16T00:41:22;10.70;99.90
10828;DHT22;5467;59.334;13.512;2022-10-16T00:43:51;10.50;99.90
10828;DHT22;5467;59.334;13.512;2022-10-16T00:46:20;10.70;99.90
10828;DHT22;5467;59.334;13.512;2022-10-16T00:48:51;10.60;99.90
10828;DHT22;5467;59.334;13.512;2022-10-16T00:51:22;10.70;99.90
10828;DHT22;5467;59.334;13.512;2022-10-16T00:53:51;10.70;99.90
10828;DHT22;5467;59.334;13.512;2022-10-16T00:56:19;10.80;99.90
10828;DHT22;5467;59.334;13.512;2022-10-16T00:58:46;10.80;99.90
10828;DHT22;5467;59.334;13.512;2022-10-16T01:01:13;10.80;99.90
10828;DHT22;5467;59.334;13.512;2022-10-16T01:03:40;10.80;99.90
10828;DHT22;5467;59.334;13.512;2022-10-16T01:06:16;10.90;99.90
10828;DHT22;5467;59.334;13.512;2022-10-16T01:08:58;10.80;99.90
10828;DHT22;5467;59.334;13.512;2022-10-16T01:11:32;10.90;99.90
10828;DHT22;5467;59.334;13.512;2022-10-16T01:14:06;10.90;99.90
10828;DHT22;5467;59.334;13.512;2022-10-16T01:16:38;10.90;99.90
10828;DHT22;5467;59.334;13.512;2022-10-16T01:19:12;10.90;99.90
10828;DHT22;5467;59.334;13.512;2022-10-16T01:21:43;10.90;99.90
10828;DHT22;5467;59.334;13.512;2022-10-16T01:24:22;11.00;99.90
10828;DHT22;5467;59.334;13.512;2022-10-16T01:27:11;10.90;99.90
10828;DHT22;5467;59.334;13.512;2022-10-16T01:29:44;10.90;99.90
10828;DHT22;5467;59.334;13.512;2022-10-16T01:32:17;11.00;99.90
10828;DHT22;5467;59.334;13.512;2022-10-16T01:34:49;11.00;99.90
10828;DHT22;5467;59.334;13.512;2022-10-16T01:37:24;11.00;99.90
10828;DHT22;5467;59.334;13.512;2022-10-16T01:39:55;11.10;99.90
10828;DHT22;5467;59.334;13.512;2022-10-16T01:42:30;11.00;99.90
10828;DHT22;5467;59.334;13.512;2022-10-16T01:45:00;11.00;99.90
10828;DHT22;5467;59.334;13.512;2022-10-16T01:47:30;11.10;99.90
10828;DHT22;5467;59.334;13.512;2022-10-16T01:49:58;11.10;99.90
10828;DHT22;5467;59.334;13.512;2022-10-16T01:52:28;11.20;99.90
10828;DHT22;5467;59.334;13.512;2022-10-16T01:54:56;11.20;99.90
10828;DHT22;5467;59.334;13.512;2022-10-16T01:57:26;11.30;99.90
10828;DHT22;5467;59.334;13.512;2022-10-16T01:59:57;11.30;99.90
10828;DHT22;5467;59.334;13.512;2022-10-16T02:02:27;11.30;99.90
10828;DHT22;5467;59.334;13.512;2022-10-16T02:04:58;11.30;99.90
10828;DHT22;5467;59.334;13.512;2022-10-16T02:07:26;11.30;99.90
10828;DHT22;5467;59.334;13.512;2022-10-16T02:09:54;11.20;99.90
10828;DHT22;5467;59.334;13.512;2022-10-16T02:12:27;11.20;99.90
10828;DHT22;5467;59.334;13.512;2022-10-16T02:14:55;11.20;99.90
10828;DHT22;5467;59.334;13.512;2022-10-16T02:17:22;11.20;99.90
10828;DHT22;5467;59.334;13.512;2022-10-16T02:19:51;11.20;99.90
10828;DHT22;5467;59.334;13.512;2022-10-16T02:22:24;11.20;99.90
10828;DHT22;5467;59.334;13.512;2022-10-16T02:24:56;11.20;99.90
10828;DHT22;5467;59.334;13.512;2022-10-16T02:27:29;11.20;99.90
10828;DHT22;5467;59.334;13.512;2022-10-16T02:30:02;11.30;99.90
10828;DHT22;5467;59.334;13.512;2022-10-16T02:32:34;11.40;99.90
10828;DHT22;5467;59.334;13.512;2022-10-16T02:35:04;11.40;99.90
10828;DHT22;5467;59.334;13.512;2022-10-16T02:37:32;11.40;99.90
10828;DHT22;5467;59.334;13.512;2022-10-16T02:39:59;11.40;99.90
10828;DHT22;5467;59.334;13.512;2022-10-16T02:42:31;11.40;99.90
10828;DHT22;5467;59.334;13.512;2022-10-16T02:44:59;11.40;99.90
10828;DHT22;5467;59.334;13.512;2022-10-16T02:47:26;11.40;99.90
10828;DHT22;5467;59.334;13.512;2022-10-16T02:49:54;11.40;99.90
10828;DHT22;5467;59.334;13.512;2022-10-16T02:52:21;11.40;99.90
10828;DHT22;5467;59.334;13.512;2022-10-16T02:54:47;11.50;99.90
10828;DHT22;5467;59.334;13.512;2022-10-16T02:57:14;11.40;99.90
10828;DHT22;5467;59.334;13.512;2022-10-16T02:59:43;11.50;99.90
10828;DHT22;5467;59.334;13.512;2022-10-16T03:02:10;11.50;99.90
10828;DHT22;5467;59.334;13.512;2022-10-16T03:04:37;11.40;99.90
10828;DHT22;5467;59.334;13.512;2022-10-16T03:07:04;11.40;99.90
10828;DHT22;5467;59.334;13.512;2022-10-16T03:09:31;11.30;99.90
10828;DHT22;5467;59.334;13.512;2022-10-16T03:11:58;11.20;99.90
10828;DHT22;5467;59.334;13.512;2022-10-16T03:14:25;11.20;99.90
10828;DHT22;5467;59.334;13.512;2022-10-16T03:16:54;11.20;99.90
10828;DHT22;5467;59.334;13.512;2022-10-16T03:19:21;11.20;99.90
10828;DHT22;5467;59.334;13.512;2022-10-16T03:21:48;11.20;99.90
10828;DHT22;5467;59.334;13.512;2022-10-16T03:24:15;11.20;99.90
10828;DHT22;5467;59.334;13.512;2022-10-16T03:26:43;11.10;99.90
10828;DHT22;5467;59.334;13.512;2022-10-16T03:29:10;11.10;99.90
10828;DHT22;5467;59.334;13.512;2022-10-16T03:31:37;11.20;99.90
10828;DHT22;5467;59.334;13.512;2022-10-16T03:34:05;11.10;99.90
10828;DHT22;5467;59.334;13.512;2022-10-16T03:36:32;11.00;99.90
10828;DHT22;5467;59.334;13.512;2022-10-16T03:38:59;11.10;99.90
10828;DHT22;5467;59.334;13.512;2022-10-16T03:41:26;11.20;99.90
10828;DHT22;5467;59.334;13.512;2022-10-16T03:43:53;11.20;99.90
10828;DHT22;5467;59.334;13.512;2022-10-16T03:46:20;11.20;99.90
10828;DHT22;5467;59.334;13.512;2022-10-16T03:48:47;11.30;99.90
10828;DHT22;5467;59.334;13.512;2022-10-16T03:51:15;11.30;99.90
10828;DHT22;5467;59.334;13.512;2022-10-16T03:53:42;11.30;99.90
10828;DHT22;5467;59.334;13.512;2022-10-16T03:56:09;11.30;99.90
10828;DHT22;5467;59.334;13.512;2022-10-16T03:58:36;11.30;99.90
10828;DHT22;5467;59.334;13.512;2022-10-16T04:01:03;11.20;99.90
10828;DHT22;5467;59.334;13.512;2022-10-16T04:03:30;11.20;99.90
10828;DHT22;5467;59.334;13.512;2022-10-16T04:05:57;11.20;99.90
10828;DHT22;5467;59.334;13.512;2022-10-16T04:08:25;11.30;99.90
10828;DHT22;5467;59.334;13.512;2022-10-16T04:10:52;11.30;99.90
10828;DHT22;5467;59.334;13.512;2022-10-16T04:13:19;11.30;99.90
10828;DHT22;5467;59.334;13.512;2022-10-16T04:15:46;11.40;99.90
10828;DHT22;5467;59.334;13.512;2022-10-16T04:18:13;11.30;99.90
10828;DHT22;5467;59.334;13.512;2022-10-16T04:20:41;11.30;99.90
10828;DHT22;5467;59.334;13.512;2022-10-16T04:23:07;11.30;99.90
10828;DHT22;5467;59.334;13.512;2022-10-16T04:25:36;11.20;99.90
10828;DHT22;5467;59.334;13.512;2022-10-16T04:28:03;11.30;99.90
10828;DHT22;5467;59.334;13.512;2022-10-16T04:30:30;11.30;99.90
10828;DHT22;5467;59.334;13.512;2022-10-16T04:32:59;11.30;99.90
10828;DHT22;5467;59.334;13.512;2022-10-16T04:35:26;11.30;99.90
10828;DHT22;5467;59.334;13.512;2022-10-16T04:37:53;11.30;99.90
10828;DHT22;5467;59.334;13.512;2022-10-16T04:40:20;11.30;99.90
10828;DHT22;5467;59.334;13.512;2022-10-16T04:42:48;11.20;99.90
10828;DHT22;5467;59.334;13.512;2022-10-16T04:45:15;11.20;99.90
10828;DHT22;5467;59.334;13.512;2022-10-16T04:47:42;11.20;99.90
10828;DHT22;5467;59.334;13.512;2022-10-16T04:50:09;11.20;99.90
10828;DHT22;5467;59.334;13.512;2022-10-16T04:52:36;11.20;99.90
10828;DHT22;5467;59.334;13.512;2022-10-16T04:55:04;11.20;99.90
10828;DHT22;5467;59.334;13.512;2022-10-16T04:57:31;11.20;99.90
10828;DHT22;5467;59.334;13.512;2022-10-16T05:00:00;11.20;99.90
10828;DHT22;5467;59.334;13.512;2022-10-16T05:02:28;11.30;99.90
10828;DHT22;5467;59.334;13.512;2022-10-16T05:04:55;11.20;99.90
10828;DHT22;5467;59.334;13.512;2022-10-16T05:07:22;11.20;99.90
10828;DHT22;5467;59.334;13.512;2022-10-16T05:09:49;11.20;99.90
10828;DHT22;5467;59.334;13.512;2022-10-16T05:12:16;11.20;99.90
10828;DHT22;5467;59.334;13.512;2022-10-16T05:14:43;11.20;99.90
10828;DHT22;5467;59.334;13.512;2022-10-16T05:17:12;11.30;99.90
10828;DHT22;5467;59.334;13.512;2022-10-16T05:19:39;11.30;99.90
10828;DHT22;5467;59.334;13.512;2022-10-16T05:22:06;11.30;99.90
10828;DHT22;5467;59.334;13.512;2022-10-16T05:24:33;11.30;99.90
10828;DHT22;5467;59.334;13.512;2022-10-16T05:27:00;11.30;99.90
10828;DHT22;5467;59.334;13.512;2022-10-16T05:29:27;11.30;99.90
10828;DHT22;5467;59.334;13.512;2022-10-16T05:31:54;11.40;99.90
10828;DHT22;5467;59.334;13.512;2022-10-16T05:34:22;11.30;99.90
10828;DHT22;5467;59.334;13.512;2022-10-16T05:36:50;11.20;99.90
10828;DHT22;5467;59.334;13.512;2022-10-16T05:39:17;11.20;99.90
10828;DHT22;5467;59.334;13.512;2022-10-16T05:41:44;11.20;99.90
10828;DHT22;5467;59.334;13.512;2022-10-16T05:44:11;11.10;99.90
10828;DHT22;5467;59.334;13.512;2022-10-16T05:46:38;11.10;99.90
10828;DHT22;5467;59.334;13.512;2022-10-16T05:49:05;11.10;99.90
10828;DHT22;5467;59.334;13.512;2022-10-16T05:51:33;11.00;99.90
10828;DHT22;5467;59.334;13.512;2022-10-16T05:54:00;11.00;99.90
10828;DHT22;5467;59.334;13.512;2022-10-16T05:56:27;11.10;99.90
10828;DHT22;5467;59.334;13.512;2022-10-16T05:58:54;11.00;99.90
10828;DHT22;5467;59.334;13.512;2022-10-16T06:01:22;11.10;99.90
10828;DHT22;5467;59.334;13.512;2022-10-16T06:03:50;11.10;99.90
10828;DHT22;5467;59.334;13.512;2022-10-16T06:06:19;11.10;99.90
10828;DHT22;5467;59.334;13.512;2022-10-16T06:08:48;11.10;99.90
10828;DHT22;5467;59.334;13.512;2022-10-16T06:11:17;11.10;99.90
10828;DHT22;5467;59.334;13.512;2022-10-16T06:13:44;11.10;99.90
10828;DHT22;5467;59.334;13.512;2022-10-16T06:16:12;11.10;99.90
10828;DHT22;5467;59.334;13.512;2022-10-16T06:18:40;11.10;99.90
10828;DHT22;5467;59.334;13.512;2022-10-16T06:21:08;11.10;99.90
10828;DHT22;5467;59.334;13.512;2022-10-16T06:23:36;11.10;99.90
10828;DHT22;5467;59.334;13.512;2022-10-16T06:26:08;11.10;99.90
10828;DHT22;5467;59.334;13.512;2022-10-16T06:28:36;11.10;99.90
10828;DHT22;5467;59.334;13.512;2022-10-16T06:31:05;11.10;99.90
10828;DHT22;5467;59.334;13.512;2022-10-16T06:33:32;11.10;99.90
10828;DHT22;5467;59.334;13.512;2022-10-16T06:36:03;11.10;99.90
10828;DHT22;5467;59.334;13.512;2022-10-16T06:38:31;11.00;99.90
10828;DHT22;5467;59.334;13.512;2022-10-16T06:40:58;11.00;99.90
10828;DHT22;5467;59.334;13.512;2022-10-16T06:43:28;11.00;99.90
10828;DHT22;5467;59.334;13.512;2022-10-16T06:45:59;11.00;99.90
10828;DHT22;5467;59.334;13.512;2022-10-16T06:48:27;11.10;99.90
10828;DHT22;5467;59.334;13.512;2022-10-16T06:50:58;11.10;99.90
10828;DHT22;5467;59.334;13.512;2022-10-16T06:53:26;11.00;99.90
10828;DHT22;5467;59.334;13.512;2022-10-16T06:55:53;10.90;99.90
10828;DHT22;5467;59.334;13.512;2022-10-16T06:58:21;10.90;99.90
10828;DHT22;5467;59.334;13.512;2022-10-16T07:00:51;11.00;99.90
10828;DHT22;5467;59.334;13.512;2022-10-16T07:03:21;11.00;99.90
10828;DHT22;5467;59.334;13.512;2022-10-16T07:05:48;10.90;99.90
10828;DHT22;5467;59.334;13.512;2022-10-16T07:08:15;11.10;99.90
10828;DHT22;5467;59.334;13.512;2022-10-16T07:10:42;11.10;99.90
10828;DHT22;5467;59.334;13.512;2022-10-16T07:13:09;11.10;99.90
10828;DHT22;5467;59.334;13.512;2022-10-16T07:15:38;11.10;99.90
10828;DHT22;5467;59.334;13.512;2022-10-16T07:18:07;11.10;99.90
10828;DHT22;5467;59.334;13.512;2022-10-16T07:20:34;11.20;99.90
10828;DHT22;5467;59.334;13.512;2022-10-16T07:23:01;11.10;99.90
10828;DHT22;5467;59.334;13.512;2022-10-16T07:25:28;11.10;99.90
10828;DHT22;5467;59.334;13.512;2022-10-16T07:27:54;11.20;99.90
10828;DHT22;5467;59.334;13.512;2022-10-16T07:30:22;11.20;99.90
10828;DHT22;5467;59.334;13.512;2022-10-16T07:32:49;11.20;99.90
10828;DHT22;5467;59.334;13.512;2022-10-16T07:35:18;11.20;99.90
10828;DHT22;5467;59.334;13.512;2022-10-16T07:37:45;11.20;99.90
10828;DHT22;5467;59.334;13.512;2022-10-16T07:40:12;11.20;99.90
10828;DHT22;5467;59.334;13.512;2022-10-16T07:42:39;11.30;99.90
10828;DHT22;5467;59.334;13.512;2022-10-16T07:45:07;11.30;99.90
10828;DHT22;5467;59.334;13.512;2022-10-16T07:47:34;11.40;99.90
10828;DHT22;5467;59.334;13.512;2022-10-16T07:50:01;11.50;99.90
10828;DHT22;5467;59.334;13.512;2022-10-16T07:52:30;11.60;99.90
10828;DHT22;5467;59.334;13.512;2022-10-16T07:54:57;11.60;99.90
10828;DHT22;5467;59.334;13.512;2022-10-16T07:57:24;11.60;99.90
10828;DHT22;5467;59.334;13.512;2022-10-16T07:59:51;11.60;99.90
10828;DHT22;5467;59.334;13.512;2022-10-16T08:02:18;11.70;99.90
10828;DHT22;5467;59.334;13.512;2022-10-16T08:04:46;11.70;99.90
10828;DHT22;5467;59.334;13.512;2022-10-16T08:07:13;11.70;99.90
10828;DHT22;5467;59.334;13.512;2022-10-16T08:09:41;11.70;99.90
10828;DHT22;5467;59.334;13.512;2022-10-16T08:12:08;11.70;99.90
10828;DHT22;5467;59.334;13.512;2022-10-16T08:14:36;11.60;99.90
10828;DHT22;5467;59.334;13.512;2022-10-16T08:17:03;11.60;99.90
10828;DHT22;5467;59.334;13.512;2022-10-16T08:19:30;11.70;99.90
10828;DHT22;5467;59.334;13.512;2022-10-16T08:21:59;11.80;99.90
10828;DHT22;5467;59.334;13.512;2022-10-16T08:24:26;11.80;99.90
10828;DHT22;5467;59.334;13.512;2022-10-16T08:26:57;11.70;99.90
10828;DHT22;5467;59.334;13.512;2022-10-16T08:29:24;11.70;99.90
10828;DHT22;5467;59.334;13.512;2022-10-16T08:31:51;11.70;99.90
10828;DHT22;5467;59.334;13.512;2022-10-16T08:34:18;11.80;99.90
10828;DHT22;5467;59.334;13.512;2022-10-16T08:36:45;11.70;99.90
10828;DHT22;5467;59.334;13.512;2022-10-16T08:39:12;11.70;99.90
10828;DHT22;5467;59.334;13.512;2022-10-16T08:42:07;11.60;99.90
10828;DHT22;5467;59.334;13.512;2022-10-16T08:44:49;11.60;99.90
10828;DHT22;5467;59.334;13.512;2022-10-16T08:47:24;11.70;99.90
10828;DHT22;5467;59.334;13.512;2022-10-16T08:49:57;11.60;99.90
10828;DHT22;5467;59.334;13.512;2022-10-16T08:52:29;11.60;99.90
10828;DHT22;5467;59.334;13.512;2022-10-16T08:54:56;11.70;99.90
10828;DHT22;5467;59.334;13.512;2022-10-16T08:57:26;11.70;99.90
10828;DHT22;5467;59.334;13.512;2022-10-16T08:59:54;11.80;99.90
10828;DHT22;5467;59.334;13.512;2022-10-16T09:02:32;11.90;99.90
10828;DHT22;5467;59.334;13.512;2022-10-16T09:05:21;11.90;99.90
10828;DHT22;5467;59.334;13.512;2022-10-16T09:07:59;12.00;99.90
10828;DHT22;5467;59.334;13.512;2022-10-16T09:10:38;12.10;99.90
10828;DHT22;5467;59.334;13.512;2022-10-16T09:13:15;12.20;99.90
10828;DHT22;5467;59.334;13.512;2022-10-16T09:15:48;12.10;99.90
10828;DHT22;5467;59.334;13.512;2022-10-16T09:18:23;12.10;99.90
10828;DHT22;5467;59.334;13.512;2022-10-16T09:20:57;12.10;99.90
10828;DHT22;5467;59.334;13.512;2022-10-16T09:23:27;12.00;99.90
10828;DHT22;5467;59.334;13.512;2022-10-16T09:25:55;12.00;99.90
10828;DHT22;5467;59.334;13.512;2022-10-16T09:28:24;12.10;99.90
10828;DHT22;5467;59.334;13.512;2022-10-16T09:30:52;12.00;99.90
10828;DHT22;5467;59.334;13.512;2022-10-16T09:33:22;12.10;99.90
10828;DHT22;5467;59.334;13.512;2022-10-16T09:35:51;12.10;99.90
10828;DHT22;5467;59.334;13.512;2022-10-16T09:38:25;12.00;99.90
10828;DHT22;5467;59.334;13.512;2022-10-16T09:40:54;11.90;99.90
10828;DHT22;5467;59.334;13.512;2022-10-16T09:43:26;11.80;99.90
10828;DHT22;5467;59.334;13.512;2022-10-16T09:45:58;11.90;99.90
10828;DHT22;5467;59.334;13.512;2022-10-16T09:48:28;12.00;99.90
10828;DHT22;5467;59.334;13.512;2022-10-16T09:51:01;11.90;99.90
10828;DHT22;5467;59.334;13.512;2022-10-16T09:53:40;12.00;99.90
10828;DHT22;5467;59.334;13.512;2022-10-16T09:56:10;12.10;99.90
10828;DHT22;5467;59.334;13.512;2022-10-16T09:58:43;12.10;99.90
10828;DHT22;5467;59.334;13.512;2022-10-16T10:01:15;12.20;99.90
10828;DHT22;5467;59.334;13.512;2022-10-16T10:03:43;12.10;99.90
10828;DHT22;5467;59.334;13.512;2022-10-16T10:06:18;12.20;99.90
10828;DHT22;5467;59.334;13.512;2022-10-16T10:09:16;12.20;99.90
10828;DHT22;5467;59.334;13.512;2022-10-16T10:11:49;12.20;99.90
10828;DHT22;5467;59.334;13.512;2022-10-16T10:14:21;12.10;99.90
10828;DHT22;5467;59.334;13.512;2022-10-16T10:16:51;12.20;99.90
10828;DHT22;5467;59.334;13.512;2022-10-16T10:19:19;12.10;99.90
10828;DHT22;5467;59.334;13.512;2022-10-16T10:21:47;12.20;99.90
10828;DHT22;5467;59.334;13.512;2022-10-16T10:24:16;12.10;99.90
10828;DHT22;5467;59.334;13.512;2022-10-16T10:26:54;12.20;99.90
10828;DHT22;5467;59.334;13.512;2022-10-16T10:29:34;12.20;99.90
10828;DHT22;5467;59.334;13.512;2022-10-16T10:32:13;12.20;99.90
10828;DHT22;5467;59.334;13.512;2022-10-16T10:34:52;12.20;99.90
10828;DHT22;5467;59.334;13.512;2022-10-16T10:37:41;12.20;99.90
10828;DHT22;5467;59.334;13.512;2022-10-16T10:40:18;12.20;99.90
10828;DHT22;5467;59.334;13.512;2022-10-16T10:42:53;12.10;99.90
10828;DHT22;5467;59.334;13.512;2022-10-16T10:45:26;12.10;99.90
10828;DHT22;5467;59.334;13.512;2022-10-16T10:48:06;12.10;99.90
10828;DHT22;5467;59.334;13.512;2022-10-16T10:50:43;12.00;99.90
10828;DHT22;5467;59.334;13.512;2022-10-16T10:53:21;12.00;99.90
10828;DHT22;5467;59.334;13.512;2022-10-16T10:55:57;11.70;99.90
10828;DHT22;5467;59.334;13.512;2022-10-16T10:58:39;11.70;99.90
10828;DHT22;5467;59.334;13.512;2022-10-16T11:01:13;11.60;99.90
10828;DHT22;5467;59.334;13.512;2022-10-16T11:03:53;11.70;99.90
10828;DHT22;5467;59.334;13.512;2022-10-16T11:06:26;11.60;99.90
10828;DHT22;5467;59.334;13.512;2022-10-16T11:08:59;11.70;99.90
10828;DHT22;5467;59.334;13.512;2022-10-16T11:11:32;11.60;99.90
10828;DHT22;5467;59.334;13.512;2022-10-16T11:14:04;11.70;99.90
10828;DHT22;5467;59.334;13.512;2022-10-16T11:16:38;11.60;99.90
10828;DHT22;5467;59.334;13.512;2022-10-16T11:19:12;11.70;99.90
10828;DHT22;5467;59.334;13.512;2022-10-16T11:21:44;11.70;99.90
10828;DHT22;5467;59.334;13.512;2022-10-16T11:24:18;11.60;99.90
10828;DHT22;5467;59.334;13.512;2022-10-16T11:26:49;11.70;99.90
10828;DHT22;5467;59.334;13.512;2022-10-16T11:29:25;11.70;99.90
10828;DHT22;5467;59.334;13.512;2022-10-16T11:31:59;11.60;99.90
10828;DHT22;5467;59.334;13.512;2022-10-16T11:34:32;11.50;99.90
10828;DHT22;5467;59.334;13.512;2022-10-16T11:37:04;11.50;99.90
10828;DHT22;5467;59.334;13.512;2022-10-16T11:39:32;11.50;99.90
10828;DHT22;5467;59.334;13.512;2022-10-16T11:42:03;11.50;99.90
10828;DHT22;5467;59.334;13.512;2022-10-16T11:44:44;11.50;99.90
10828;DHT22;5467;59.334;13.512;2022-10-16T11:47:26;11.50;99.90
10828;DHT22;5467;59.334;13.512;2022-10-16T11:49:58;11.30;99.90
10828;DHT22;5467;59.334;13.512;2022-10-16T11:52:30;11.30;99.90
10828;DHT22;5467;59.334;13.512;2022-10-16T11:55:04;11.20;99.90
10828;DHT22;5467;59.334;13.512;2022-10-16T11:57:39;11.20;99.90
10828;DHT22;5467;59.334;13.512;2022-10-16T12:00:14;11.20;99.90
10828;DHT22;5467;59.334;13.512;2022-10-16T12:02:54;11.20;99.90
10828;DHT22;5467;59.334;13.512;2022-10-16T12:05:30;11.30;99.90
10828;DHT22;5467;59.334;13.512;2022-10-16T12:08:08;11.20;99.90
10828;DHT22;5467;59.334;13.512;2022-10-16T12:10:37;11.00;99.90
10828;DHT22;5467;59.334;13.512;2022-10-16T12:13:25;11.20;99.90
10828;DHT22;5467;59.334;13.512;2022-10-16T12:15:52;11.60;99.90
10828;DHT22;5467;59.334;13.512;2022-10-16T12:18:32;11.70;99.90
10828;DHT22;5467;59.334;13.512;2022-10-16T12:20:59;12.10;99.90
10828;DHT22;5467;59.334;13.512;2022-10-16T12:23:32;12.40;99.90
10828;DHT22;5467;59.334;13.512;2022-10-16T12:26:00;12.50;99.90
10828;DHT22;5467;59.334;13.512;2022-10-16T12:28:29;12.40;99.90
10828;DHT22;5467;59.334;13.512;2022-10-16T12:30:59;12.20;99.90
10828;DHT22;5467;59.334;13.512;2022-10-16T12:33:29;12.00;99.90
10828;DHT22;5467;59.334;13.512;2022-10-16T12:35:59;12.20;99.90
10828;DHT22;5467;59.334;13.512;2022-10-16T12:38:28;12.10;99.90
10828;DHT22;5467;59.334;13.512;2022-10-16T12:41:00;12.10;99.90
10828;DHT22;5467;59.334;13.512;2022-10-16T12:43:37;12.10;99.90
10828;DHT22;5467;59.334;13.512;2022-10-16T12:46:20;12.00;99.90
10828;DHT22;5467;59.334;13.512;2022-10-16T12:48:48;11.90;99.90
10828;DHT22;5467;59.334;13.512;2022-10-16T12:51:33;11.70;99.90
10828;DHT22;5467;59.334;13.512;2022-10-16T12:54:01;11.40;99.90
10828;DHT22;5467;59.334;13.512;2022-10-16T12:56:39;11.30;99.90
10828;DHT22;5467;59.334;13.512;2022-10-16T12:59:16;11.10;99.90
10828;DHT22;5467;59.334;13.512;2022-10-16T13:01:59;10.90;99.90
10828;DHT22;5467;59.334;13.512;2022-10-16T13:04:45;10.90;99.90
10828;DHT22;5467;59.334;13.512;2022-10-16T13:07:33;10.90;99.90
10828;DHT22;5467;59.334;13.512;2022-10-16T13:10:14;10.70;99.90
10828;DHT22;5467;59.334;13.512;2022-10-16T13:13:00;10.70;99.90
10828;DHT22;5467;59.334;13.512;2022-10-16T13:15:44;10.80;99.90
10828;DHT22;5467;59.334;13.512;2022-10-16T13:18:16;10.70;99.90
10828;DHT22;5467;59.334;13.512;2022-10-16T13:21:00;10.80;99.90
10828;DHT22;5467;59.334;13.512;2022-10-16T13:23:37;10.70;99.90
10828;DHT22;5467;59.334;13.512;2022-10-16T13:26:14;10.70;99.90
10828;DHT22;5467;59.334;13.512;2022-10-16T13:28:43;10.70;99.90
10828;DHT22;5467;59.334;13.512;2022-10-16T13:31:17;10.70;99.90
10828;DHT22;5467;59.334;13.512;2022-10-16T13:33:47;10.80;99.90
10828;DHT22;5467;59.334;13.512;2022-10-16T13:36:21;10.80;99.90
10828;DHT22;5467;59.334;13.512;2022-10-16T13:39:01;10.70;99.90
10828;DHT22;5467;59.334;13.512;2022-10-16T13:41:33;10.60;99.90
10828;DHT22;5467;59.334;13.512;2022-10-16T13:44:00;10.50;99.90
10828;DHT22;5467;59.334;13.512;2022-10-16T13:46:27;10.40;99.90
10828;DHT22;5467;59.334;13.512;2022-10-16T13:48:59;10.50;99.90
10828;DHT22;5467;59.334;13.512;2022-10-16T13:51:27;10.40;99.90
10828;DHT22;5467;59.334;13.512;2022-10-16T13:53:57;10.30;99.90
10828;DHT22;5467;59.334;13.512;2022-10-16T13:56:26;10.20;99.90
10828;DHT22;5467;59.334;13.512;2022-10-16T13:59:01;10.10;99.90
10828;DHT22;5467;59.334;13.512;2022-10-16T14:01:30;10.10;99.90
10828;DHT22;5467;59.334;13.512;2022-10-16T14:04:02;10.00;99.90
10828;DHT22;5467;59.334;13.512;2022-10-16T14:06:31;10.00;99.90
10828;DHT22;5467;59.334;13.512;2022-10-16T14:09:07;10.00;99.90
10828;DHT22;5467;59.334;13.512;2022-10-16T14:11:42;10.00;99.90
10828;DHT22;5467;59.334;13.512;2022-10-16T14:14:11;10.00;99.90
10828;DHT22;5467;59.334;13.512;2022-10-16T14:16:41;9.90;99.90
10828;DHT22;5467;59.334;13.512;2022-10-16T14:19:17;10.00;99.90
10828;DHT22;5467;59.334;13.512;2022-10-16T14:21:45;10.10;99.90
10828;DHT22;5467;59.334;13.512;2022-10-16T14:24:19;10.10;99.90
10828;DHT22;5467;59.334;13.512;2022-10-16T14:26:50;10.10;99.90
10828;DHT22;5467;59.334;13.512;2022-10-16T14:29:19;10.10;99.90
10828;DHT22;5467;59.334;13.512;2022-10-16T14:31:54;10.10;99.90
10828;DHT22;5467;59.334;13.512;2022-10-16T14:34:24;10.10;99.90
10828;DHT22;5467;59.334;13.512;2022-10-16T14:36:53;10.10;99.90
10828;DHT22;5467;59.334;13.512;2022-10-16T14:39:22;10.10;99.90
10828;DHT22;5467;59.334;13.512;2022-10-16T14:41:52;10.10;99.90
10828;DHT22;5467;59.334;13.512;2022-10-16T14:44:27;10.00;99.90
10828;DHT22;5467;59.334;13.512;2022-10-16T14:46:54;10.00;99.90
10828;DHT22;5467;59.334;13.512;2022-10-16T14:49:22;10.00;99.90
10828;DHT22;5467;59.334;13.512;2022-10-16T14:51:50;10.10;99.90
10828;DHT22;5467;59.334;13.512;2022-10-16T14:54:18;10.10;99.90
10828;DHT22;5467;59.334;13.512;2022-10-16T14:56:50;10.10;99.90
10828;DHT22;5467;59.334;13.512;2022-10-16T14:59:19;10.10;99.90
10828;DHT22;5467;59.334;13.512;2022-10-16T15:01:48;10.20;99.90
10828;DHT22;5467;59.334;13.512;2022-10-16T15:04:15;10.20;99.90
10828;DHT22;5467;59.334;13.512;2022-10-16T15:06:44;10.10;99.90
10828;DHT22;5467;59.334;13.512;2022-10-16T15:09:11;10.00;99.90
10828;DHT22;5467;59.334;13.512;2022-10-16T15:11:38;9.70;99.90
10828;DHT22;5467;59.334;13.512;2022-10-16T15:14:09;9.50;99.90
10828;DHT22;5467;59.334;13.512;2022-10-16T15:16:37;9.40;99.90
10828;DHT22;5467;59.334;13.512;2022-10-16T15:19:04;9.30;99.90
10828;DHT22;5467;59.334;13.512;2022-10-16T15:21:32;9.30;99.90
10828;DHT22;5467;59.334;13.512;2022-10-16T15:24:00;9.30;99.90
10828;DHT22;5467;59.334;13.512;2022-10-16T15:26:28;9.40;99.90
10828;DHT22;5467;59.334;13.512;2022-10-16T15:28:55;9.40;99.90
10828;DHT22;5467;59.334;13.512;2022-10-16T15:31:24;9.50;99.90
10828;DHT22;5467;59.334;13.512;2022-10-16T15:33:51;9.50;99.90
10828;DHT22;5467;59.334;13.512;2022-10-16T15:36:27;9.40;99.90
10828;DHT22;5467;59.334;13.512;2022-10-16T15:38:54;9.40;99.90
10828;DHT22;5467;59.334;13.512;2022-10-16T15:41:22;9.40;99.90
10828;DHT22;5467;59.334;13.512;2022-10-16T15:43:49;9.50;99.90
10828;DHT22;5467;59.334;13.512;2022-10-16T15:46:18;9.50;99.90
10828;DHT22;5467;59.334;13.512;2022-10-16T15:48:48;9.50;99.90
10828;DHT22;5467;59.334;13.512;2022-10-16T15:51:15;9.50;99.90
10828;DHT22;5467;59.334;13.512;2022-10-16T15:53:42;9.50;99.90